sensor_id;sensor_type;location;lat;lon;timestamp;temperature;humidity
1225;DHT22;602;48.000;7.840;2023-06-26T00:00:11;22.80;99.90
1225;DHT22;602;48.000;7.840;2023-06-26T00:05:06;22.70;99.90
1225;DHT22;602;48.000;7.840;2023-06-26T00:07:33;22.80;99.90
1225;DHT22;602;48.000;7.840;2023-06-26T00:10:05;22.80;99.90
1225;DHT22;602;48.000;7.840;2023-06-26T00:12:33;22.70;99.90
1225;DHT22;602;48.000;7.840;2023-06-26T00:15:01;22.60;99.90
1225;DHT22;602;48.000;7.840;2023-06-26T00:17:28;22.50;99.90
1225;DHT22;602;48.000;7.840;2023-06-26T00:19:55;22.50;99.90
1225;DHT22;602;48.000;7.840;2023-06-26T00:22:22;22.50;99.90
1225;DHT22;602;48.000;7.840;2023-06-26T00:24:49;22.50;99.90
1225;DHT22;602;48.000;7.840;2023-06-26T00:27:16;22.50;99.90
1225;DHT22;602;48.000;7.840;2023-06-26T00:29:43;22.40;99.90
1225;DHT22;602;48.000;7.840;2023-06-26T00:32:12;22.30;99.90
1225;DHT22;602;48.000;7.840;2023-06-26T00:34:39;22.30;99.90
1225;DHT22;602;48.000;7.840;2023-06-26T00:37:06;22.30;99.90
1225;DHT22;602;48.000;7.840;2023-06-26T00:39:33;22.40;99.90
1225;DHT22;602;48.000;7.840;2023-06-26T00:42:00;22.40;99.90
1225;DHT22;602;48.000;7.840;2023-06-26T00:44:27;22.30;99.90
1225;DHT22;602;48.000;7.840;2023-06-26T00:46:54;22.30;99.90
1225;DHT22;602;48.000;7.840;2023-06-26T00:49:23;22.30;99.90
1225;DHT22;602;48.000;7.840;2023-06-26T00:51:51;22.20;99.90
1225;DHT22;602;48.000;7.840;2023-06-26T00:54:18;22.20;99.90
1225;DHT22;602;48.000;7.840;2023-06-26T00:56:48;22.30;99.90
1225;DHT22;602;48.000;7.840;2023-06-26T00:59:15;22.30;99.90
1225;DHT22;602;48.000;7.840;2023-06-26T01:01:42;22.40;99.90
1225;DHT22;602;48.000;7.840;2023-06-26T01:04:09;22.40;99.90
1225;DHT22;602;48.000;7.840;2023-06-26T01:06:45;22.40;99.90
1225;DHT22;602;48.000;7.840;2023-06-26T01:09:17;22.50;99.90
1225;DHT22;602;48.000;7.840;2023-06-26T01:11:44;22.50;99.90
1225;DHT22;602;48.000;7.840;2023-06-26T01:14:12;22.50;99.90
1225;DHT22;602;48.000;7.840;2023-06-26T01:16:39;22.50;99.90
1225;DHT22;602;48.000;7.840;2023-06-26T01:19:11;22.50;99.90
1225;DHT22;602;48.000;7.840;2023-06-26T01:21:43;22.40;99.90
1225;DHT22;602;48.000;7.840;2023-06-26T01:24:16;22.30;99.90
1225;DHT22;602;48.000;7.840;2023-06-26T01:26:49;22.30;99.90
1225;DHT22;602;48.000;7.840;2023-06-26T01:29:18;22.20;99.90
1225;DHT22;602;48.000;7.840;2023-06-26T01:31:47;22.20;99.90
1225;DHT22;602;48.000;7.840;2023-06-26T01:34:15;22.10;99.90
1225;DHT22;602;48.000;7.840;2023-06-26T01:36:44;22.10;99.90
1225;DHT22;602;48.000;7.840;2023-06-26T01:39:12;22.00;99.90
1225;DHT22;602;48.000;7.840;2023-06-26T01:41:39;22.00;99.90
1225;DHT22;602;48.000;7.840;2023-06-26T01:44:20;22.00;99.90
1225;DHT22;602;48.000;7.840;2023-06-26T01:46:57;22.00;99.90
1225;DHT22;602;48.000;7.840;2023-06-26T01:49:33;22.00;99.90
1225;DHT22;602;48.000;7.840;2023-06-26T01:52:09;22.10;99.90
1225;DHT22;602;48.000;7.840;2023-06-26T01:54:45;22.00;99.90
1225;DHT22;602;48.000;7.840;2023-06-26T01:57:14;22.00;99.90
1225;DHT22;602;48.000;7.840;2023-06-26T01:59:44;21.90;99.90
1225;DHT22;602;48.000;7.840;2023-06-26T02:02:12;21.80;99.90
1225;DHT22;602;48.000;7.840;2023-06-26T02:04:39;21.90;99.90
1225;DHT22;602;48.000;7.840;2023-06-26T02:07:07;21.90;99.90
1225;DHT22;602;48.000;7.840;2023-06-26T02:09:35;21.90;99.90
1225;DHT22;602;48.000;7.840;2023-06-26T02:12:02;21.80;99.90
1225;DHT22;602;48.000;7.840;2023-06-26T02:14:29;21.80;99.90
1225;DHT22;602;48.000;7.840;2023-06-26T02:16:58;21.80;99.90
1225;DHT22;602;48.000;7.840;2023-06-26T02:19:25;21.80;99.90
1225;DHT22;602;48.000;7.840;2023-06-26T02:21:53;21.80;99.90
1225;DHT22;602;48.000;7.840;2023-06-26T02:24:20;21.80;99.90
1225;DHT22;602;48.000;7.840;2023-06-26T02:26:47;21.80;99.90
1225;DHT22;602;48.000;7.840;2023-06-26T02:29:18;21.80;99.90
1225;DHT22;602;48.000;7.840;2023-06-26T02:31:47;21.80;99.90
1225;DHT22;602;48.000;7.840;2023-06-26T02:34:15;21.90;99.90
1225;DHT22;602;48.000;7.840;2023-06-26T02:36:42;21.80;99.90
1225;DHT22;602;48.000;7.840;2023-06-26T02:39:09;21.80;99.90
1225;DHT22;602;48.000;7.840;2023-06-26T02:41:36;21.80;99.90
1225;DHT22;602;48.000;7.840;2023-06-26T02:44:03;21.90;99.90
1225;DHT22;602;48.000;7.840;2023-06-26T02:46:30;21.90;99.90
1225;DHT22;602;48.000;7.840;2023-06-26T02:48:57;21.90;99.90
1225;DHT22;602;48.000;7.840;2023-06-26T02:51:25;21.90;99.90
1225;DHT22;602;48.000;7.840;2023-06-26T02:53:52;21.80;99.90
1225;DHT22;602;48.000;7.840;2023-06-26T02:56:20;21.70;99.90
1225;DHT22;602;48.000;7.840;2023-06-26T02:58:46;21.70;99.90
1225;DHT22;602;48.000;7.840;2023-06-26T03:01:13;21.80;99.90
1225;DHT22;602;48.000;7.840;2023-06-26T03:03:41;21.80;99.90
1225;DHT22;602;48.000;7.840;2023-06-26T03:06:08;21.80;99.90
1225;DHT22;602;48.000;7.840;2023-06-26T03:08:37;21.90;99.90
1225;DHT22;602;48.000;7.840;2023-06-26T03:11:05;21.90;99.90
1225;DHT22;602;48.000;7.840;2023-06-26T03:13:32;21.90;99.90
1225;DHT22;602;48.000;7.840;2023-06-26T03:15:59;21.80;99.90
1225;DHT22;602;48.000;7.840;2023-06-26T03:18:26;21.80;99.90
1225;DHT22;602;48.000;7.840;2023-06-26T03:20:54;21.70;99.90
1225;DHT22;602;48.000;7.840;2023-06-26T03:23:21;21.70;99.90
1225;DHT22;602;48.000;7.840;2023-06-26T03:25:50;21.60;99.90
1225;DHT22;602;48.000;7.840;2023-06-26T03:28:17;21.70;99.90
1225;DHT22;602;48.000;7.840;2023-06-26T03:30:44;21.70;99.90
1225;DHT22;602;48.000;7.840;2023-06-26T03:33:11;21.70;99.90
1225;DHT22;602;48.000;7.840;2023-06-26T03:35:38;21.70;99.90
1225;DHT22;602;48.000;7.840;2023-06-26T03:38:05;21.70;99.90
1225;DHT22;602;48.000;7.840;2023-06-26T03:40:31;21.70;99.90
1225;DHT22;602;48.000;7.840;2023-06-26T03:43:00;21.70;99.90
1225;DHT22;602;48.000;7.840;2023-06-26T03:45:26;21.70;99.90
1225;DHT22;602;48.000;7.840;2023-06-26T03:47:53;21.70;99.90
1225;DHT22;602;48.000;7.840;2023-06-26T03:50:20;21.70;99.90
1225;DHT22;602;48.000;7.840;2023-06-26T03:52:47;21.70;99.90
1225;DHT22;602;48.000;7.840;2023-06-26T03:55:16;21.70;99.90
1225;DHT22;602;48.000;7.840;2023-06-26T03:57:42;21.70;99.90
1225;DHT22;602;48.000;7.840;2023-06-26T04:00:13;21.80;99.90
1225;DHT22;602;48.000;7.840;2023-06-26T04:02:40;21.70;99.90
1225;DHT22;602;48.000;7.840;2023-06-26T04:05:07;21.80;99.90
1225;DHT22;602;48.000;7.840;2023-06-26T04:07:34;21.90;99.90
1225;DHT22;602;48.000;7.840;2023-06-26T04:10:01;21.90;99.90
1225;DHT22;602;48.000;7.840;2023-06-26T04:12:28;22.00;99.90
1225;DHT22;602;48.000;7.840;2023-06-26T04:14:55;22.00;99.90
1225;DHT22;602;48.000;7.840;2023-06-26T04:17:23;22.10;99.90
1225;DHT22;602;48.000;7.840;2023-06-26T04:19:50;22.20;99.90
1225;DHT22;602;48.000;7.840;2023-06-26T04:22:17;22.20;99.90
1225;DHT22;602;48.000;7.840;2023-06-26T04:24:44;22.20;99.90
1225;DHT22;602;48.000;7.840;2023-06-26T04:27:11;22.10;99.90
1225;DHT22;602;48.000;7.840;2023-06-26T04:29:40;22.20;99.90
1225;DHT22;602;48.000;7.840;2023-06-26T04:32:06;22.20;99.90
1225;DHT22;602;48.000;7.840;2023-06-26T04:34:35;22.20;99.90
1225;DHT22;602;48.000;7.840;2023-06-26T04:37:06;22.20;99.90
1225;DHT22;602;48.000;7.840;2023-06-26T04:39:35;22.20;99.90
1225;DHT22;602;48.000;7.840;2023-06-26T04:42:04;22.20;99.90
1225;DHT22;602;48.000;7.840;2023-06-26T04:44:31;22.20;99.90
1225;DHT22;602;48.000;7.840;2023-06-26T04:46:59;22.20;99.90
1225;DHT22;602;48.000;7.840;2023-06-26T04:49:26;22.30;99.90
1225;DHT22;602;48.000;7.840;2023-06-26T04:51:55;22.30;99.90
1225;DHT22;602;48.000;7.840;2023-06-26T04:54:22;22.30;99.90
1225;DHT22;602;48.000;7.840;2023-06-26T04:56:49;22.40;99.90
1225;DHT22;602;48.000;7.840;2023-06-26T04:59:16;22.50;99.90
1225;DHT22;602;48.000;7.840;2023-06-26T05:01:43;22.60;99.90
1225;DHT22;602;48.000;7.840;2023-06-26T05:04:13;22.70;99.90
1225;DHT22;602;48.000;7.840;2023-06-26T05:06:40;22.70;99.90
1225;DHT22;602;48.000;7.840;2023-06-26T05:09:09;22.70;99.90
1225;DHT22;602;48.000;7.840;2023-06-26T05:11:37;22.70;99.90
1225;DHT22;602;48.000;7.840;2023-06-26T05:14:04;22.70;99.90
1225;DHT22;602;48.000;7.840;2023-06-26T05:16:33;22.80;99.90
1225;DHT22;602;48.000;7.840;2023-06-26T05:19:00;22.60;99.90
1225;DHT22;602;48.000;7.840;2023-06-26T05:21:28;22.70;99.90
1225;DHT22;602;48.000;7.840;2023-06-26T05:23:57;22.80;99.90
1225;DHT22;602;48.000;7.840;2023-06-26T05:26:26;22.80;99.90
1225;DHT22;602;48.000;7.840;2023-06-26T05:28:54;22.70;99.90
1225;DHT22;602;48.000;7.840;2023-06-26T05:31:22;22.80;99.90
1225;DHT22;602;48.000;7.840;2023-06-26T05:33:49;22.80;99.90
1225;DHT22;602;48.000;7.840;2023-06-26T05:36:18;22.80;99.90
1225;DHT22;602;48.000;7.840;2023-06-26T05:38:47;22.90;99.90
1225;DHT22;602;48.000;7.840;2023-06-26T05:41:14;23.00;99.90
1225;DHT22;602;48.000;7.840;2023-06-26T05:43:42;23.00;99.90
1225;DHT22;602;48.000;7.840;2023-06-26T05:46:09;23.10;99.90
1225;DHT22;602;48.000;7.840;2023-06-26T05:48:36;23.20;99.90
1225;DHT22;602;48.000;7.840;2023-06-26T05:51:04;23.30;99.90
1225;DHT22;602;48.000;7.840;2023-06-26T05:53:31;23.30;99.90
1225;DHT22;602;48.000;7.840;2023-06-26T05:55:59;23.40;99.90
1225;DHT22;602;48.000;7.840;2023-06-26T05:58:26;23.50;99.90
1225;DHT22;602;48.000;7.840;2023-06-26T06:00:55;23.50;99.90
1225;DHT22;602;48.000;7.840;2023-06-26T06:03:22;23.60;99.90
1225;DHT22;602;48.000;7.840;2023-06-26T06:05:49;23.70;99.90
1225;DHT22;602;48.000;7.840;2023-06-26T06:08:16;23.70;99.90
1225;DHT22;602;48.000;7.840;2023-06-26T06:10:43;23.80;99.90
1225;DHT22;602;48.000;7.840;2023-06-26T06:13:10;23.90;99.90
1225;DHT22;602;48.000;7.840;2023-06-26T06:15:37;23.90;99.90
1225;DHT22;602;48.000;7.840;2023-06-26T06:21:50;24.00;99.90
1225;DHT22;602;48.000;7.840;2023-06-26T06:27:50;24.30;99.90
1225;DHT22;602;48.000;7.840;2023-06-26T06:31:07;24.40;99.90
1225;DHT22;602;48.000;7.840;2023-06-26T06:33:34;24.60;99.90
1225;DHT22;602;48.000;7.840;2023-06-26T06:36:02;24.70;99.90
1225;DHT22;602;48.000;7.840;2023-06-26T06:38:32;24.80;99.90
1225;DHT22;602;48.000;7.840;2023-06-26T06:41:09;25.00;99.90
1225;DHT22;602;48.000;7.840;2023-06-26T06:43:51;25.00;99.90
1225;DHT22;602;48.000;7.840;2023-06-26T06:46:23;25.20;99.90
1225;DHT22;602;48.000;7.840;2023-06-26T06:48:53;25.40;99.90
1225;DHT22;602;48.000;7.840;2023-06-26T06:51:20;25.50;99.90
1225;DHT22;602;48.000;7.840;2023-06-26T06:53:48;25.70;99.90
1225;DHT22;602;48.000;7.840;2023-06-26T06:56:15;25.80;99.90
1225;DHT22;602;48.000;7.840;2023-06-26T06:58:42;25.90;99.90
1225;DHT22;602;48.000;7.840;2023-06-26T07:01:11;26.10;99.90
1225;DHT22;602;48.000;7.840;2023-06-26T07:03:39;26.30;99.90
1225;DHT22;602;48.000;7.840;2023-06-26T07:06:06;26.40;99.90
1225;DHT22;602;48.000;7.840;2023-06-26T07:08:33;26.60;99.90
1225;DHT22;602;48.000;7.840;2023-06-26T07:11:01;26.80;99.90
1225;DHT22;602;48.000;7.840;2023-06-26T07:13:28;27.00;99.90
1225;DHT22;602;48.000;7.840;2023-06-26T07:15:55;27.20;99.90
1225;DHT22;602;48.000;7.840;2023-06-26T07:18:22;27.40;99.90
1225;DHT22;602;48.000;7.840;2023-06-26T07:20:49;27.70;99.90
1225;DHT22;602;48.000;7.840;2023-06-26T07:23:16;27.90;99.90
1225;DHT22;602;48.000;7.840;2023-06-26T07:25:42;28.10;99.90
1225;DHT22;602;48.000;7.840;2023-06-26T07:28:12;28.30;99.90
1225;DHT22;602;48.000;7.840;2023-06-26T07:30:39;28.50;99.90
1225;DHT22;602;48.000;7.840;2023-06-26T07:33:05;28.70;99.90
1225;DHT22;602;48.000;7.840;2023-06-26T07:35:33;29.10;99.90
1225;DHT22;602;48.000;7.840;2023-06-26T07:38:00;29.40;99.90
1225;DHT22;602;48.000;7.840;2023-06-26T07:40:27;29.50;99.90
1225;DHT22;602;48.000;7.840;2023-06-26T07:42:53;29.80;99.90
1225;DHT22;602;48.000;7.840;2023-06-26T07:45:22;30.10;99.90
1225;DHT22;602;48.000;7.840;2023-06-26T07:47:48;30.40;99.90
1225;DHT22;602;48.000;7.840;2023-06-26T07:50:15;30.60;99.90
1225;DHT22;602;48.000;7.840;2023-06-26T07:52:47;31.00;99.90
1225;DHT22;602;48.000;7.840;2023-06-26T07:55:14;31.20;99.70
1225;DHT22;602;48.000;7.840;2023-06-26T07:57:41;31.50;99.80
1225;DHT22;602;48.000;7.840;2023-06-26T08:00:08;31.70;99.10
1225;DHT22;602;48.000;7.840;2023-06-26T08:02:37;32.00;98.00
1225;DHT22;602;48.000;7.840;2023-06-26T08:05:04;32.20;98.50
1225;DHT22;602;48.000;7.840;2023-06-26T08:07:31;32.50;97.00
1225;DHT22;602;48.000;7.840;2023-06-26T08:09:58;32.60;96.90
1225;DHT22;602;48.000;7.840;2023-06-26T08:12:25;32.80;96.40
1225;DHT22;602;48.000;7.840;2023-06-26T08:14:51;32.70;96.50
1225;DHT22;602;48.000;7.840;2023-06-26T08:17:18;32.60;96.60
1225;DHT22;602;48.000;7.840;2023-06-26T08:19:47;32.40;96.50
1225;DHT22;602;48.000;7.840;2023-06-26T08:22:13;32.50;96.50
1225;DHT22;602;48.000;7.840;2023-06-26T08:24:40;32.40;96.40
1225;DHT22;602;48.000;7.840;2023-06-26T08:27:07;32.30;96.40
1225;DHT22;602;48.000;7.840;2023-06-26T08:29:34;32.40;96.10
1225;DHT22;602;48.000;7.840;2023-06-26T08:32:01;32.30;96.30
1225;DHT22;602;48.000;7.840;2023-06-26T08:34:28;32.30;96.30
1225;DHT22;602;48.000;7.840;2023-06-26T08:36:56;32.20;96.30
1225;DHT22;602;48.000;7.840;2023-06-26T08:39:24;32.30;95.90
1225;DHT22;602;48.000;7.840;2023-06-26T08:41:51;32.50;95.90
1225;DHT22;602;48.000;7.840;2023-06-26T08:44:18;32.40;95.80
1225;DHT22;602;48.000;7.840;2023-06-26T08:46:50;32.50;96.10
1225;DHT22;602;48.000;7.840;2023-06-26T08:49:21;32.40;95.80
1225;DHT22;602;48.000;7.840;2023-06-26T08:51:52;32.20;96.10
1225;DHT22;602;48.000;7.840;2023-06-26T08:54:27;32.20;96.30
1225;DHT22;602;48.000;7.840;2023-06-26T08:56:55;32.20;96.20
1225;DHT22;602;48.000;7.840;2023-06-26T08:59:22;32.20;96.30
1225;DHT22;602;48.000;7.840;2023-06-26T09:01:50;32.20;96.20
1225;DHT22;602;48.000;7.840;2023-06-26T09:04:17;32.20;96.10
1225;DHT22;602;48.000;7.840;2023-06-26T09:06:44;32.20;96.30
1225;DHT22;602;48.000;7.840;2023-06-26T09:09:11;32.30;96.50
1225;DHT22;602;48.000;7.840;2023-06-26T09:11:39;32.50;96.40
1225;DHT22;602;48.000;7.840;2023-06-26T09:14:07;32.60;96.20
1225;DHT22;602;48.000;7.840;2023-06-26T09:16:39;32.80;96.40
1225;DHT22;602;48.000;7.840;2023-06-26T09:19:09;33.10;95.40
1225;DHT22;602;48.000;7.840;2023-06-26T09:21:38;33.50;95.30
1225;DHT22;602;48.000;7.840;2023-06-26T09:24:06;33.80;94.40
1225;DHT22;602;48.000;7.840;2023-06-26T09:26:34;33.70;94.30
1225;DHT22;602;48.000;7.840;2023-06-26T09:29:02;33.60;94.10
1225;DHT22;602;48.000;7.840;2023-06-26T09:31:29;33.40;93.90
1225;DHT22;602;48.000;7.840;2023-06-26T09:33:58;33.60;94.10
1225;DHT22;602;48.000;7.840;2023-06-26T09:36:28;33.50;94.10
1225;DHT22;602;48.000;7.840;2023-06-26T09:38:59;33.50;94.40
1225;DHT22;602;48.000;7.840;2023-06-26T09:41:26;33.60;94.50
1225;DHT22;602;48.000;7.840;2023-06-26T09:43:58;33.90;94.20
1225;DHT22;602;48.000;7.840;2023-06-26T09:46:30;34.10;94.30
1225;DHT22;602;48.000;7.840;2023-06-26T09:49:02;34.10;93.60
1225;DHT22;602;48.000;7.840;2023-06-26T09:51:30;34.20;93.70
1225;DHT22;602;48.000;7.840;2023-06-26T09:53:58;34.00;93.80
1225;DHT22;602;48.000;7.840;2023-06-26T09:56:25;33.80;93.90
1225;DHT22;602;48.000;7.840;2023-06-26T09:58:54;33.40;94.40
1225;DHT22;602;48.000;7.840;2023-06-26T10:01:21;33.30;94.20
1225;DHT22;602;48.000;7.840;2023-06-26T10:03:50;33.00;94.40
1225;DHT22;602;48.000;7.840;2023-06-26T10:06:19;33.00;94.50
1225;DHT22;602;48.000;7.840;2023-06-26T10:08:49;33.00;94.50
1225;DHT22;602;48.000;7.840;2023-06-26T10:11:20;33.00;94.60
1225;DHT22;602;48.000;7.840;2023-06-26T10:13:50;32.80;94.60
1225;DHT22;602;48.000;7.840;2023-06-26T10:16:22;32.70;95.00
1225;DHT22;602;48.000;7.840;2023-06-26T10:18:53;32.50;95.10
1225;DHT22;602;48.000;7.840;2023-06-26T10:21:24;32.50;95.40
1225;DHT22;602;48.000;7.840;2023-06-26T10:23:52;32.50;95.30
1225;DHT22;602;48.000;7.840;2023-06-26T10:26:20;32.70;95.40
1225;DHT22;602;48.000;7.840;2023-06-26T10:28:49;32.60;95.60
1225;DHT22;602;48.000;7.840;2023-06-26T10:31:20;32.70;95.70
1225;DHT22;602;48.000;7.840;2023-06-26T10:33:51;32.60;95.80
1225;DHT22;602;48.000;7.840;2023-06-26T10:36:20;32.50;96.10
1225;DHT22;602;48.000;7.840;2023-06-26T10:38:51;32.60;96.00
1225;DHT22;602;48.000;7.840;2023-06-26T10:41:22;32.60;96.20
1225;DHT22;602;48.000;7.840;2023-06-26T10:43:50;32.40;96.20
1225;DHT22;602;48.000;7.840;2023-06-26T10:46:21;32.40;96.70
1225;DHT22;602;48.000;7.840;2023-06-26T10:49:00;32.60;96.60
1225;DHT22;602;48.000;7.840;2023-06-26T10:51:29;32.70;96.40
1225;DHT22;602;48.000;7.840;2023-06-26T10:53:56;32.70;96.70
1225;DHT22;602;48.000;7.840;2023-06-26T10:56:42;32.70;97.40
1225;DHT22;602;48.000;7.840;2023-06-26T10:59:14;32.70;96.20
1225;DHT22;602;48.000;7.840;2023-06-26T11:01:46;32.60;96.50
1225;DHT22;602;48.000;7.840;2023-06-26T11:04:14;32.70;97.00
1225;DHT22;602;48.000;7.840;2023-06-26T11:06:46;32.90;96.50
1225;DHT22;602;48.000;7.840;2023-06-26T11:09:17;33.00;96.40
1225;DHT22;602;48.000;7.840;2023-06-26T11:12:00;33.40;96.00
1225;DHT22;602;48.000;7.840;2023-06-26T11:14:32;33.60;95.40
1225;DHT22;602;48.000;7.840;2023-06-26T11:17:01;33.50;95.40
1225;DHT22;602;48.000;7.840;2023-06-26T11:19:29;33.60;96.10
1225;DHT22;602;48.000;7.840;2023-06-26T11:22:03;33.60;96.70
1225;DHT22;602;48.000;7.840;2023-06-26T11:24:30;33.60;95.20
1225;DHT22;602;48.000;7.840;2023-06-26T11:27:04;33.50;95.50
1225;DHT22;602;48.000;7.840;2023-06-26T11:29:32;33.50;95.90
1225;DHT22;602;48.000;7.840;2023-06-26T11:32:00;33.70;96.20
1225;DHT22;602;48.000;7.840;2023-06-26T11:34:31;33.70;95.50
1225;DHT22;602;48.000;7.840;2023-06-26T11:36:58;33.80;96.40
1225;DHT22;602;48.000;7.840;2023-06-26T11:39:27;33.60;95.40
1225;DHT22;602;48.000;7.840;2023-06-26T11:41:54;33.70;95.40
1225;DHT22;602;48.000;7.840;2023-06-26T11:44:21;33.80;95.60
1225;DHT22;602;48.000;7.840;2023-06-26T11:46:51;33.80;95.50
1225;DHT22;602;48.000;7.840;2023-06-26T11:49:21;33.60;95.70
1225;DHT22;602;48.000;7.840;2023-06-26T11:51:52;33.50;95.70
1225;DHT22;602;48.000;7.840;2023-06-26T11:54:25;33.60;95.10
1225;DHT22;602;48.000;7.840;2023-06-26T11:56:54;33.60;94.80
1225;DHT22;602;48.000;7.840;2023-06-26T11:59:22;33.60;94.80
1225;DHT22;602;48.000;7.840;2023-06-26T12:01:50;33.50;94.30
1225;DHT22;602;48.000;7.840;2023-06-26T12:04:18;33.50;94.80
1225;DHT22;602;48.000;7.840;2023-06-26T12:06:47;33.60;94.20
1225;DHT22;602;48.000;7.840;2023-06-26T12:09:17;33.40;94.30
1225;DHT22;602;48.000;7.840;2023-06-26T12:11:47;33.50;94.50
1225;DHT22;602;48.000;7.840;2023-06-26T12:14:15;33.40;94.40
1225;DHT22;602;48.000;7.840;2023-06-26T12:16:43;33.30;94.40
1225;DHT22;602;48.000;7.840;2023-06-26T12:19:10;33.00;94.80
1225;DHT22;602;48.000;7.840;2023-06-26T12:21:47;32.80;94.80
1225;DHT22;602;48.000;7.840;2023-06-26T12:24:20;32.80;94.80
1225;DHT22;602;48.000;7.840;2023-06-26T12:26:50;32.80;95.30
1225;DHT22;602;48.000;7.840;2023-06-26T12:29:20;32.60;95.60
1225;DHT22;602;48.000;7.840;2023-06-26T12:31:51;32.70;95.40
1225;DHT22;602;48.000;7.840;2023-06-26T12:34:20;33.00;95.60
1225;DHT22;602;48.000;7.840;2023-06-26T12:36:49;33.30;95.30
1225;DHT22;602;48.000;7.840;2023-06-26T12:39:17;33.60;94.50
1225;DHT22;602;48.000;7.840;2023-06-26T12:41:52;33.60;93.80
1225;DHT22;602;48.000;7.840;2023-06-26T12:44:19;33.60;93.80
1225;DHT22;602;48.000;7.840;2023-06-26T12:46:48;33.40;93.30
1225;DHT22;602;48.000;7.840;2023-06-26T12:49:15;33.40;93.70
1225;DHT22;602;48.000;7.840;2023-06-26T12:51:42;33.30;94.10
1225;DHT22;602;48.000;7.840;2023-06-26T12:54:09;33.10;93.30
1225;DHT22;602;48.000;7.840;2023-06-26T12:56:36;33.10;93.90
1225;DHT22;602;48.000;7.840;2023-06-26T12:59:04;33.00;93.30
1225;DHT22;602;48.000;7.840;2023-06-26T13:01:31;32.90;93.20
1225;DHT22;602;48.000;7.840;2023-06-26T13:03:58;32.80;93.20
1225;DHT22;602;48.000;7.840;2023-06-26T13:06:25;32.80;94.00
1225;DHT22;602;48.000;7.840;2023-06-26T13:08:52;32.80;93.60
1225;DHT22;602;48.000;7.840;2023-06-26T13:11:19;32.90;92.50
1225;DHT22;602;48.000;7.840;2023-06-26T13:13:47;33.00;92.60
1225;DHT22;602;48.000;7.840;2023-06-26T13:16:15;32.80;92.50
1225;DHT22;602;48.000;7.840;2023-06-26T13:18:44;32.70;93.40
1225;DHT22;602;48.000;7.840;2023-06-26T13:21:11;32.80;92.70
1225;DHT22;602;48.000;7.840;2023-06-26T13:23:37;32.70;92.70
1225;DHT22;602;48.000;7.840;2023-06-26T13:26:05;32.60;93.40
1225;DHT22;602;48.000;7.840;2023-06-26T13:28:32;32.60;93.20
1225;DHT22;602;48.000;7.840;2023-06-26T13:30:59;32.60;92.70
1225;DHT22;602;48.000;7.840;2023-06-26T13:33:27;32.60;92.90
1225;DHT22;602;48.000;7.840;2023-06-26T13:35:54;32.70;92.90
1225;DHT22;602;48.000;7.840;2023-06-26T13:38:22;32.70;92.60
1225;DHT22;602;48.000;7.840;2023-06-26T13:40:50;32.90;92.40
1225;DHT22;602;48.000;7.840;2023-06-26T13:43:19;32.80;92.00
1225;DHT22;602;48.000;7.840;2023-06-26T13:45:46;32.80;91.80
1225;DHT22;602;48.000;7.840;2023-06-26T13:48:13;32.80;92.00
1225;DHT22;602;48.000;7.840;2023-06-26T13:50:42;32.80;91.90
1225;DHT22;602;48.000;7.840;2023-06-26T13:53:08;32.80;91.40
1225;DHT22;602;48.000;7.840;2023-06-26T13:55:35;32.70;91.20
1225;DHT22;602;48.000;7.840;2023-06-26T13:58:06;32.70;91.60
1225;DHT22;602;48.000;7.840;2023-06-26T14:00:34;32.60;91.50
1225;DHT22;602;48.000;7.840;2023-06-26T14:03:02;32.70;91.40
1225;DHT22;602;48.000;7.840;2023-06-26T14:05:29;32.60;91.40
1225;DHT22;602;48.000;7.840;2023-06-26T14:07:58;32.50;91.20
1225;DHT22;602;48.000;7.840;2023-06-26T14:10:25;32.50;91.40
1225;DHT22;602;48.000;7.840;2023-06-26T14:12:52;32.60;91.60
1225;DHT22;602;48.000;7.840;2023-06-26T14:15:18;32.70;91.30
1225;DHT22;602;48.000;7.840;2023-06-26T14:17:45;32.70;91.40
1225;DHT22;602;48.000;7.840;2023-06-26T14:20:16;32.80;91.30
1225;DHT22;602;48.000;7.840;2023-06-26T14:22:43;32.80;91.10
1225;DHT22;602;48.000;7.840;2023-06-26T14:25:12;32.70;90.60
1225;DHT22;602;48.000;7.840;2023-06-26T14:27:40;32.70;90.20
1225;DHT22;602;48.000;7.840;2023-06-26T14:30:08;32.60;90.30
1225;DHT22;602;48.000;7.840;2023-06-26T14:32:35;32.70;90.20
1225;DHT22;602;48.000;7.840;2023-06-26T14:35:02;32.70;89.80
1225;DHT22;602;48.000;7.840;2023-06-26T14:37:30;32.70;87.90
1225;DHT22;602;48.000;7.840;2023-06-26T14:39:57;32.80;88.00
1225;DHT22;602;48.000;7.840;2023-06-26T14:42:26;32.80;87.90
1225;DHT22;602;48.000;7.840;2023-06-26T14:44:56;32.80;87.50
1225;DHT22;602;48.000;7.840;2023-06-26T14:47:23;32.70;87.60
1225;DHT22;602;48.000;7.840;2023-06-26T14:49:49;32.70;86.50
1225;DHT22;602;48.000;7.840;2023-06-26T14:52:16;32.70;86.80
1225;DHT22;602;48.000;7.840;2023-06-26T14:54:43;32.70;86.10
1225;DHT22;602;48.000;7.840;2023-06-26T14:57:10;32.80;87.30
1225;DHT22;602;48.000;7.840;2023-06-26T14:59:38;32.80;86.80
1225;DHT22;602;48.000;7.840;2023-06-26T15:02:06;32.90;86.10
1225;DHT22;602;48.000;7.840;2023-06-26T15:04:33;32.80;86.60
1225;DHT22;602;48.000;7.840;2023-06-26T15:06:59;32.80;86.00
1225;DHT22;602;48.000;7.840;2023-06-26T15:09:26;32.70;86.60
1225;DHT22;602;48.000;7.840;2023-06-26T15:11:53;32.60;85.60
1225;DHT22;602;48.000;7.840;2023-06-26T15:14:20;32.50;86.50
1225;DHT22;602;48.000;7.840;2023-06-26T15:16:48;32.50;86.20
1225;DHT22;602;48.000;7.840;2023-06-26T15:19:15;32.50;86.00
1225;DHT22;602;48.000;7.840;2023-06-26T15:21:42;32.60;85.00
1225;DHT22;602;48.000;7.840;2023-06-26T15:24:09;32.50;84.90
1225;DHT22;602;48.000;7.840;2023-06-26T15:26:35;32.40;84.30
1225;DHT22;602;48.000;7.840;2023-06-26T15:29:03;32.40;84.40
1225;DHT22;602;48.000;7.840;2023-06-26T15:31:30;32.40;84.50
1225;DHT22;602;48.000;7.840;2023-06-26T15:33:58;32.30;84.30
1225;DHT22;602;48.000;7.840;2023-06-26T15:36:25;32.20;85.60
1225;DHT22;602;48.000;7.840;2023-06-26T15:38:52;32.20;84.60
1225;DHT22;602;48.000;7.840;2023-06-26T15:41:19;32.10;84.80
1225;DHT22;602;48.000;7.840;2023-06-26T15:43:46;32.10;84.80
1225;DHT22;602;48.000;7.840;2023-06-26T15:46:13;32.00;84.60
1225;DHT22;602;48.000;7.840;2023-06-26T15:48:40;32.00;85.40
1225;DHT22;602;48.000;7.840;2023-06-26T15:51:09;31.90;84.80
1225;DHT22;602;48.000;7.840;2023-06-26T15:53:39;31.80;85.10
1225;DHT22;602;48.000;7.840;2023-06-26T15:56:07;31.80;84.90
1225;DHT22;602;48.000;7.840;2023-06-26T15:58:34;31.80;85.30
1225;DHT22;602;48.000;7.840;2023-06-26T16:01:06;31.80;85.10
1225;DHT22;602;48.000;7.840;2023-06-26T16:03:33;31.50;84.40
1225;DHT22;602;48.000;7.840;2023-06-26T16:06:00;31.40;84.40
1225;DHT22;602;48.000;7.840;2023-06-26T16:08:29;31.40;84.60
1225;DHT22;602;48.000;7.840;2023-06-26T16:10:56;31.30;85.30
1225;DHT22;602;48.000;7.840;2023-06-26T16:13:22;31.20;85.10
1225;DHT22;602;48.000;7.840;2023-06-26T16:15:51;31.20;85.50
1225;DHT22;602;48.000;7.840;2023-06-26T16:18:18;31.20;85.50
1225;DHT22;602;48.000;7.840;2023-06-26T16:20:45;31.10;85.90
1225;DHT22;602;48.000;7.840;2023-06-26T16:23:12;30.90;85.80
1225;DHT22;602;48.000;7.840;2023-06-26T16:25:41;30.90;86.40
1225;DHT22;602;48.000;7.840;2023-06-26T16:28:08;30.90;87.10
1225;DHT22;602;48.000;7.840;2023-06-26T16:30:35;30.90;86.20
1225;DHT22;602;48.000;7.840;2023-06-26T16:33:02;30.80;86.50